Bf Esperanza — V2BR8 — position and weather

sailwx.info

Track history (hours):
 
Tides and Currents Weather Stations Pressure Air Temp Water Temp Dewpoint Dewpoint Depression Visibility Wind Speed Wind Dir Waves Ship Positions

Bf Esperanza

Last reported at 2014-Oct-29 14:34 UTC. Time now 2014-Oct-30 19:06 UTC.
Position N 35°57' W 005°12'.

Length 135 m; draft 6.6 m.

Type: Cargo ship. MMSI: 304907000.

Date/timePositionNaut miles runAvg speedWind from/ knotsBaromVisibWave heightAir tempDewpointWater temp
2014-Oct-29 14:34N 35°57' W 005°12'118 3.3
2014-Oct-28 02:33N 34°35' W 006°56'1313.3
2014-Oct-28 01:33N 34°47' W 006°48'4 4.5
2014-Oct-28 00:33N 34°51' W 006°46'9 9.0
2014-Oct-27 23:33N 34°42' W 006°50'1313.5
2014-Oct-27 22:33N 34°54' W 006°42'1313.0
2014-Oct-27 21:33N 35°05' W 006°34'1313.3
2014-Oct-27 20:33N 35°17' W 006°25'1413.4
2014-Oct-27 19:30N 35°28' W 006°16'1313.4
2014-Oct-27 18:33N 35°39' W 006°07'34 1.5
2014-Oct-26 20:17N 35°57' W 005°32'1013.3
2014-Oct-26 19:34N 36°01' W 005°21'22213.9
2014-Oct-26 03:33N 37°15' W 001°00'1615.5
2014-Oct-26 02:33N 37°25' W 000°46'1615.6
2014-Oct-26 01:33N 37°36' W 000°32'1515.3
2014-Oct-26 00:33N 37°49' W 000°21'1515.3
2014-Oct-25 23:33N 38°02' W 000°11'1615.5
2014-Oct-25 22:33N 38°15' E 000°00'1515.0
2014-Oct-25 21:33N 38°28' E 000°11'1815.2
2014-Oct-25 20:22N 38°43' E 000°23'4014.2
2014-Oct-25 17:31N 39°16' W 000°07'1314.0
2014-Oct-25 16:33N 39°26' W 000°18'1 1.0
2014-Oct-25 15:33N 39°27' W 000°19'0 0.0
2014-Oct-25 14:33N 39°27' W 000°19'0 0.0
2014-Oct-25 13:30N 39°27' W 000°19'0 0.0
2014-Oct-25 12:29N 39°27' W 000°19'0 0.0
2014-Oct-25 11:32N 39°27' W 000°19'0 0.0
2014-Oct-25 10:32N 39°27' W 000°19'0 0.0
2014-Oct-25 09:25N 39°27' W 000°19'3 3.8
2014-Oct-25 08:33N 39°26' W 000°15'18114.9
2014-Oct-24 20:25N 41°26' E 002°43'1514.6
2014-Oct-24 19:22N 41°36' E 002°59'1214.2
2014-Oct-24 18:31N 41°44' E 003°11'1514.4
2014-Oct-24 17:28N 41°54' E 003°25'1414.3
2014-Oct-24 16:28N 42°04' E 003°39'1515.3
2014-Oct-24 15:30N 42°15' E 003°53'1714.8
2014-Oct-24 14:19N 42°27' E 004°10'1414.8
2014-Oct-24 13:21N 42°37' E 004°24'1315.9
2014-Oct-24 12:33N 42°46' E 004°36'2015.0
2014-Oct-24 11:14N 43°00' E 004°55'1014.5
2014-Oct-24 10:33N 43°07' E 005°04'1312.9
2014-Oct-24 09:32N 43°18' E 005°14'5 2.4
2014-Oct-24 07:22N 43°21' E 005°20'0 0.0
2014-Oct-24 04:33N 43°21' E 005°20'0 0.0
2014-Oct-24 03:32N 43°21' E 005°20'0 0.0
2014-Oct-24 01:31N 43°21' E 005°20'0 0.0
2014-Oct-24 00:25N 43°21' E 005°20'0 0.0
2014-Oct-23 23:03N 43°21' E 005°20'0 0.0
2014-Oct-23 22:12N 43°21' E 005°20'0 0.0
2014-Oct-23 21:18N 43°21' E 005°20'0 0.0
2014-Oct-23 20:11N 43°21' E 005°20'0 0.0
2014-Oct-23 19:05N 43°21' E 005°20'0 0.0
2014-Oct-23 15:30N 43°21' E 005°20'4 4.4
2014-Oct-23 14:33N 43°19' E 005°15'1111.5
2014-Oct-23 13:33N 43°10' E 005°06'2813.8
2014-Oct-23 11:33N 43°06' E 004°28'1413.8
2014-Oct-23 10:33N 43°03' E 004°09'1614.0
2014-Oct-23 09:24N 43°00' E 003°48'1214.0
2014-Oct-23 08:33N 42°57' E 003°32'1413.3
2014-Oct-23 07:31N 42°46' E 003°21'1311.6
2014-Oct-23 06:27N 42°34' E 003°24'93 4.4
2014-Oct-22 09:19N 41°18' E 002°11'  
Track history (hours):
 
Tides and Currents Weather Stations Pressure Air Temp Water Temp Dewpoint Dewpoint Depression Visibility Wind Speed Wind Dir Waves Ship Positions

Bf Esperanza

Last reported at 2014-Oct-29 14:34 UTC. Time now 2014-Oct-30 19:06 UTC.
Position N 35°57' W 005°12'.

Length 135 m; draft 6.6 m.

Type: Cargo ship. MMSI: 304907000.

Date/timePositionNaut miles runAvg speedWind from/ knotsBaromVisibWave heightAir tempDewpointWater temp
2014-Oct-29 14:34N 35°57' W 005°12'118 3.3
2014-Oct-28 02:33N 34°35' W 006°56'1313.3
2014-Oct-28 01:33N 34°47' W 006°48'4 4.5
2014-Oct-28 00:33N 34°51' W 006°46'9 9.0
2014-Oct-27 23:33N 34°42' W 006°50'1313.5
2014-Oct-27 22:33N 34°54' W 006°42'1313.0
2014-Oct-27 21:33N 35°05' W 006°34'1313.3
2014-Oct-27 20:33N 35°17' W 006°25'1413.4
2014-Oct-27 19:30N 35°28' W 006°16'1313.4
2014-Oct-27 18:33N 35°39' W 006°07'34 1.5
2014-Oct-26 20:17N 35°57' W 005°32'1013.3
2014-Oct-26 19:34N 36°01' W 005°21'22213.9
2014-Oct-26 03:33N 37°15' W 001°00'1615.5
2014-Oct-26 02:33N 37°25' W 000°46'1615.6
2014-Oct-26 01:33N 37°36' W 000°32'1515.3
2014-Oct-26 00:33N 37°49' W 000°21'1515.3
2014-Oct-25 23:33N 38°02' W 000°11'1615.5
2014-Oct-25 22:33N 38°15' E 000°00'1515.0
2014-Oct-25 21:33N 38°28' E 000°11'1815.2
2014-Oct-25 20:22N 38°43' E 000°23'4014.2
2014-Oct-25 17:31N 39°16' W 000°07'1314.0
2014-Oct-25 16:33N 39°26' W 000°18'1 1.0
2014-Oct-25 15:33N 39°27' W 000°19'0 0.0
2014-Oct-25 14:33N 39°27' W 000°19'0 0.0
2014-Oct-25 13:30N 39°27' W 000°19'0 0.0
2014-Oct-25 12:29N 39°27' W 000°19'0 0.0
2014-Oct-25 11:32N 39°27' W 000°19'0 0.0
2014-Oct-25 10:32N 39°27' W 000°19'0 0.0
2014-Oct-25 09:25N 39°27' W 000°19'3 3.8
2014-Oct-25 08:33N 39°26' W 000°15'18114.9
2014-Oct-24 20:25N 41°26' E 002°43'1514.6
2014-Oct-24 19:22N 41°36' E 002°59'1214.2
2014-Oct-24 18:31N 41°44' E 003°11'1514.4
2014-Oct-24 17:28N 41°54' E 003°25'1414.3
2014-Oct-24 16:28N 42°04' E 003°39'1515.3
2014-Oct-24 15:30N 42°15' E 003°53'1714.8
2014-Oct-24 14:19N 42°27' E 004°10'1414.8
2014-Oct-24 13:21N 42°37' E 004°24'1315.9
2014-Oct-24 12:33N 42°46' E 004°36'2015.0
2014-Oct-24 11:14N 43°00' E 004°55'1014.5
2014-Oct-24 10:33N 43°07' E 005°04'1312.9
2014-Oct-24 09:32N 43°18' E 005°14'5 2.4
2014-Oct-24 07:22N 43°21' E 005°20'0 0.0
2014-Oct-24 04:33N 43°21' E 005°20'0 0.0
2014-Oct-24 03:32N 43°21' E 005°20'0 0.0
2014-Oct-24 01:31N 43°21' E 005°20'0 0.0
2014-Oct-24 00:25N 43°21' E 005°20'0 0.0
2014-Oct-23 23:03N 43°21' E 005°20'0 0.0
2014-Oct-23 22:12N 43°21' E 005°20'0 0.0
2014-Oct-23 21:18N 43°21' E 005°20'0 0.0
2014-Oct-23 20:11N 43°21' E 005°20'0 0.0
2014-Oct-23 19:05N 43°21' E 005°20'0 0.0
2014-Oct-23 15:30N 43°21' E 005°20'4 4.4
2014-Oct-23 14:33N 43°19' E 005°15'1111.5
2014-Oct-23 13:33N 43°10' E 005°06'2813.8
2014-Oct-23 11:33N 43°06' E 004°28'1413.8
2014-Oct-23 10:33N 43°03' E 004°09'1614.0
2014-Oct-23 09:24N 43°00' E 003°48'1214.0
2014-Oct-23 08:33N 42°57' E 003°32'1413.3
2014-Oct-23 07:31N 42°46' E 003°21'1311.6
2014-Oct-23 06:27N 42°34' E 003°24'93 4.4
2014-Oct-22 09:19N 41°18' E 002°11'  

Dump ship's entire track history